Time;durP1;ratioP1;P1;durP2;ratioP2;P2;SDS_P1;SDS_P2;PMS_P1;PMS_P2;Temp;Humidity;BMP_temperature;BMP_pressure;BME280_temperature;BME280_humidity;BME280_pressure;Samples;Min_cycle;Max_cycle;Signal;HPM_P1;HPM_P2
2021/03/04 00:00:46;;;;;;;21.83;9.50;;;9.60;68.80;;;;;;5043648;28;20189;-71
2021/03/04 00:03:12;;;;;;;22.07;10.53;;;9.60;69.80;;;;;;5040427;28;20265;-70
2021/03/04 00:05:38;;;;;;;20.13;10.20;;;9.60;70.10;;;;;;5035438;28;20865;-72
2021/03/04 00:08:05;;;;;;;21.20;10.63;;;9.60;70.20;;;;;;5037956;28;20478;-72
2021/03/04 00:10:31;;;;;;;25.47;11.20;;;9.60;70.20;;;;;;5043150;28;20550;-74
2021/03/04 00:12:57;;;;;;;20.30;10.30;;;9.50;69.80;;;;;;5029910;28;20450;-70
2021/03/04 00:15:26;;;;;;;22.60;9.77;;;9.60;69.20;;;;;;5044326;28;20443;-70
2021/03/04 00:17:52;;;;;;;16.83;9.00;;;9.60;68.60;;;;;;5040971;28;20562;-71
2021/03/04 00:20:24;;;;;;;20.93;10.03;;;9.60;69.10;;;;;;5017005;28;20493;-71
2021/03/04 00:22:50;;;;;;;16.27;9.20;;;9.50;69.50;;;;;;5037133;28;20436;-71
2021/03/04 00:25:18;;;;;;;18.63;9.67;;;9.50;69.50;;;;;;5031329;28;20416;-71
2021/03/04 00:27:43;;;;;;;21.67;8.87;;;9.50;69.50;;;;;;5028798;28;20432;-72
2021/03/04 00:30:12;;;;;;;20.47;9.40;;;9.50;69.40;;;;;;5035682;28;20979;-73
2021/03/04 00:32:38;;;;;;;15.70;8.57;;;9.50;69.20;;;;;;5039890;28;20684;-71
2021/03/04 00:35:05;;;;;;;15.37;9.07;;;9.50;68.50;;;;;;5044999;28;20432;-72
2021/03/04 00:37:31;;;;;;;23.80;10.00;;;9.50;67.90;;;;;;5042409;28;20180;-70
2021/03/04 00:39:57;;;;;;;22.93;11.60;;;9.50;69.50;;;;;;5037773;28;20593;-70
2021/03/04 00:42:22;;;;;;;18.17;9.87;;;9.40;69.80;;;;;;5030833;28;20213;-72
2021/03/04 00:44:48;;;;;;;24.17;11.10;;;9.30;70.40;;;;;;5045573;28;20193;-70
2021/03/04 00:47:14;;;;;;;20.90;11.07;;;9.30;70.10;;;;;;5044710;28;20212;-70
2021/03/04 00:49:40;;;;;;;17.20;9.70;;;9.30;69.70;;;;;;5042021;28;20204;-70
2021/03/04 00:52:06;;;;;;;21.13;10.10;;;9.20;69.90;;;;;;5044328;28;20213;-72
2021/03/04 00:54:32;;;;;;;26.53;9.23;;;9.30;69.90;;;;;;5044424;28;20436;-70
2021/03/04 00:56:58;;;;;;;14.23;8.50;;;9.30;69.70;;;;;;5036704;28;20980;-71
2021/03/04 00:59:23;;;;;;;15.67;8.80;;;9.30;69.70;;;;;;5056237;28;20208;-71
2021/03/04 01:01:49;;;;;;;17.67;9.43;;;9.30;69.40;;;;;;5055454;28;20662;-72
2021/03/04 01:04:16;;;;;;;19.73;9.83;;;9.20;69.80;;;;;;5044316;28;20590;-72
2021/03/04 01:06:42;;;;;;;17.37;9.40;;;9.20;69.20;;;;;;5042364;28;20433;-71
2021/03/04 01:09:08;;;;;;;16.73;8.80;;;9.20;68.60;;;;;;5036732;28;20427;-71
2021/03/04 01:11:33;;;;;;;18.77;7.87;;;9.30;67.90;;;;;;5037868;28;20215;-71
2021/03/04 01:13:59;;;;;;;21.87;9.00;;;9.20;67.60;;;;;;5044309;28;20197;-73
2021/03/04 01:16:25;;;;;;;14.93;8.90;;;9.20;67.90;;;;;;5043252;28;20180;-73
2021/03/04 01:18:51;;;;;;;13.97;7.90;;;9.20;68.00;;;;;;5026420;28;20866;-72
2021/03/04 01:21:17;;;;;;;22.60;10.40;;;9.20;68.00;;;;;;5021881;28;20447;-73
2021/03/04 01:23:42;;;;;;;15.63;7.70;;;9.10;67.90;;;;;;5043586;28;20189;-71
2021/03/04 01:26:08;;;;;;;21.17;10.80;;;9.10;67.70;;;;;;5029320;28;20189;-73
2021/03/04 01:28:34;;;;;;;17.47;9.70;;;9.10;67.20;;;;;;5032197;28;20741;-71
2021/03/04 01:31:00;;;;;;;18.53;9.97;;;9.10;68.00;;;;;;5039096;28;20193;-71
2021/03/04 01:33:25;;;;;;;15.97;9.60;;;8.90;69.40;;;;;;5043611;28;20276;-69
2021/03/04 01:35:51;;;;;;;19.53;9.67;;;8.90;69.50;;;;;;5040762;28;20306;-72
2021/03/04 01:38:17;;;;;;;18.97;9.20;;;9.00;69.50;;;;;;5036448;28;20517;-71
2021/03/04 01:40:44;;;;;;;20.57;10.07;;;8.90;69.50;;;;;;5032886;28;20186;-71
2021/03/04 01:43:10;;;;;;;16.13;9.10;;;9.00;69.80;;;;;;5032833;28;20223;-73
2021/03/04 01:45:36;;;;;;;15.87;9.33;;;9.00;69.80;;;;;;5040250;28;20807;-70
2021/03/04 01:48:02;;;;;;;15.53;9.00;;;8.90;69.90;;;;;;5042957;28;20191;-70
2021/03/04 01:50:29;;;;;;;14.30;8.30;;;8.90;70.10;;;;;;5028597;28;20212;-71
2021/03/04 01:52:55;;;;;;;13.90;7.87;;;8.90;69.70;;;;;;5030133;28;20520;-72
2021/03/04 01:55:22;;;;;;;14.57;8.53;;;9.00;69.40;;;;;;5043004;28;20840;-71
2021/03/04 01:57:48;;;;;;;20.87;9.13;;;9.00;68.60;;;;;;5051560;28;20196;-71
2021/03/04 02:00:15;;;;;;;22.53;9.17;;;9.00;68.50;;;;;;5052301;28;20419;-70
2021/03/04 02:02:42;;;;;;;18.10;8.40;;;9.00;67.90;;;;;;5037851;28;20446;-70
2021/03/04 02:05:10;;;;;;;11.90;7.93;;;9.00;67.70;;;;;;5051826;28;20491;-70
2021/03/04 02:07:54;;;;;;;15.27;7.87;;;9.00;67.60;;;;;;5037728;28;20454;-72
2021/03/04 02:10:32;;;;;;;18.13;8.40;;;9.00;67.60;;;;;;5048223;28;20943;-69
2021/03/04 02:13:26;;;;;;;13.90;7.73;;;9.00;67.60;;;;;;5029148;28;20459;-72
2021/03/04 02:16:02;;;;;;;17.40;8.00;;;9.00;67.70;;;;;;5037539;28;20419;-70
2021/03/04 02:18:31;;;;;;;17.50;8.13;;;9.00;67.50;;;;;;5047372;28;20493;-71
2021/03/04 02:21:34;;;;;;;14.17;8.20;;;9.00;67.20;;;;;;5018696;28;20416;-72
2021/03/04 02:24:29;;;;;;;17.13;8.40;;;9.00;67.30;;;;;;5017426;28;20419;-71
2021/03/04 02:27:06;;;;;;;14.20;8.20;;;9.00;67.30;;;;;;5041764;28;20420;-70
2021/03/04 02:29:55;;;;;;;15.20;7.53;;;8.90;67.50;;;;;;5029102;28;20418;-71
2021/03/04 02:32:25;;;;;;;18.57;8.23;;;8.90;67.60;;;;;;5029076;28;20459;-71
2021/03/04 02:35:00;;;;;;;14.83;7.77;;;8.90;67.30;;;;;;5032140;28;20419;-71
2021/03/04 02:37:30;;;;;;;18.60;8.00;;;8.90;66.70;;;;;;5038051;28;20415;-71
2021/03/04 02:39:58;;;;;;;14.73;7.23;;;8.80;66.10;;;;;;5041704;28;20547;-71
2021/03/04 02:42:25;;;;;;;17.70;7.53;;;8.80;66.60;;;;;;5020300;28;20463;-70
2021/03/04 02:44:54;;;;;;;16.30;8.30;;;8.90;66.00;;;;;;5041598;28;20424;-70
2021/03/04 02:47:21;;;;;;;18.10;8.30;;;8.90;66.60;;;;;;5041824;28;20431;-72
2021/03/04 02:49:48;;;;;;;15.10;8.17;;;8.90;66.90;;;;;;5034185;28;20451;-70
2021/03/04 02:52:15;;;;;;;13.97;7.57;;;8.90;67.20;;;;;;5035731;28;20455;-75
2021/03/04 02:54:43;;;;;;;19.40;8.37;;;8.90;67.00;;;;;;5014488;28;20424;-72
2021/03/04 02:57:11;;;;;;;19.87;8.30;;;8.90;66.60;;;;;;5042702;28;20423;-73
2021/03/04 02:59:42;;;;;;;18.00;7.40;;;8.90;66.60;;;;;;5036968;28;20462;-74
2021/03/04 03:02:10;;;;;;;13.67;7.90;;;8.90;66.40;;;;;;5042626;28;20451;-73
2021/03/04 03:04:38;;;;;;;19.63;8.73;;;9.00;66.10;;;;;;5048561;28;20431;-72
2021/03/04 03:07:05;;;;;;;13.43;7.10;;;9.00;66.10;;;;;;5045188;28;20431;-73
2021/03/04 03:09:32;;;;;;;19.20;8.63;;;9.00;66.30;;;;;;5041312;28;20422;-73
2021/03/04 03:11:58;;;;;;;14.43;7.30;;;9.00;66.30;;;;;;5039319;28;20899;-71
2021/03/04 03:14:25;;;;;;;15.13;7.77;;;9.00;66.10;;;;;;5043110;28;20504;-72
2021/03/04 03:16:51;;;;;;;17.37;8.30;;;9.00;65.80;;;;;;5045987;28;20431;-72
2021/03/04 03:19:17;;;;;;;16.50;8.73;;;9.10;65.70;;;;;;5024111;28;20844;-72
2021/03/04 03:21:43;;;;;;;17.90;8.30;;;9.00;66.10;;;;;;5028898;28;20216;-72
2021/03/04 03:24:09;;;;;;;17.27;8.27;;;9.00;66.60;;;;;;5044332;28;21000;-71
2021/03/04 03:26:36;;;;;;;16.03;7.67;;;9.00;66.60;;;;;;5039901;28;20515;-72
2021/03/04 03:29:03;;;;;;;16.73;8.43;;;8.90;66.90;;;;;;5039823;28;20184;-69
2021/03/04 03:31:30;;;;;;;19.67;9.27;;;8.90;67.30;;;;;;5050849;28;21013;-72
2021/03/04 03:33:57;;;;;;;15.37;7.60;;;8.80;67.70;;;;;;5041424;28;20461;-71
2021/03/04 03:36:24;;;;;;;17.20;8.60;;;8.90;67.90;;;;;;5039024;28;20439;-71
2021/03/04 03:38:51;;;;;;;19.13;8.40;;;8.80;68.00;;;;;;5043201;28;20463;-71
2021/03/04 03:41:18;;;;;;;15.07;8.57;;;8.90;67.90;;;;;;5037434;28;20491;-72
2021/03/04 03:43:46;;;;;;;18.23;8.67;;;8.80;68.30;;;;;;5042240;28;20431;-71
2021/03/04 03:46:13;;;;;;;17.00;8.37;;;8.80;68.60;;;;;;5039055;28;20456;-71
2021/03/04 03:48:40;;;;;;;19.23;9.27;;;8.80;68.60;;;;;;5042046;28;20439;-70
2021/03/04 03:51:08;;;;;;;13.80;7.63;;;8.80;68.60;;;;;;5045837;28;20424;-71
2021/03/04 03:53:35;;;;;;;18.07;8.90;;;8.80;68.50;;;;;;5043380;28;20466;-71
2021/03/04 03:56:01;;;;;;;16.50;8.07;;;8.70;68.60;;;;;;5038454;28;20430;-72
2021/03/04 03:58:28;;;;;;;13.93;7.30;;;8.70;68.50;;;;;;5040918;28;20467;-71
2021/03/04 04:00:55;;;;;;;16.40;8.10;;;8.70;68.30;;;;;;5045736;28;20478;-73
2021/03/04 04:03:22;;;;;;;14.17;6.83;;;8.70;68.00;;;;;;5044799;28;20450;-74
2021/03/04 04:05:48;;;;;;;15.80;8.60;;;8.80;66.90;;;;;;5047713;28;20952;-71
2021/03/04 04:08:15;;;;;;;15.23;7.70;;;8.70;66.70;;;;;;5044243;28;20442;-72
2021/03/04 04:10:40;;;;;;;15.50;8.90;;;8.70;68.20;;;;;;5034954;28;20487;-72
2021/03/04 04:13:09;;;;;;;15.00;7.43;;;8.60;68.80;;;;;;5046107;28;20865;-71
2021/03/04 04:15:35;;;;;;;17.20;7.43;;;8.50;68.80;;;;;;5039897;28;20185;-71
2021/03/04 04:18:02;;;;;;;13.33;7.63;;;8.60;68.60;;;;;;5045396;28;20460;-73
2021/03/04 04:20:28;;;;;;;12.23;7.43;;;8.50;68.60;;;;;;5022734;28;20255;-71
2021/03/04 04:22:56;;;;;;;20.80;7.77;;;8.50;68.80;;;;;;5042591;28;20454;-71
2021/03/04 04:25:23;;;;;;;11.93;7.20;;;8.50;68.90;;;;;;5032388;28;20428;-73
2021/03/04 04:27:54;;;;;;;19.80;11.00;;;8.50;68.80;;;;;;5028129;28;21080;-72
2021/03/04 04:30:20;;;;;;;20.43;9.80;;;8.50;68.60;;;;;;5045238;28;20427;-73
2021/03/04 04:32:47;;;;;;;18.47;8.40;;;8.50;68.50;;;;;;5043894;28;20450;-73
2021/03/04 04:35:13;;;;;;;15.73;7.93;;;8.50;68.50;;;;;;5036354;28;20435;-71
2021/03/04 04:37:40;;;;;;;16.80;7.83;;;8.50;68.30;;;;;;5037620;28;20813;-72
2021/03/04 04:40:07;;;;;;;14.23;7.70;;;8.40;68.50;;;;;;5049272;28;20605;-71
2021/03/04 04:42:33;;;;;;;17.93;8.13;;;8.30;69.20;;;;;;5031441;28;20452;-71
2021/03/04 04:45:00;;;;;;;15.63;8.93;;;8.30;68.60;;;;;;5030593;28;20474;-72
2021/03/04 04:47:25;;;;;;;20.23;8.43;;;8.30;68.60;;;;;;5030935;28;20447;-72
2021/03/04 04:49:51;;;;;;;14.97;7.80;;;8.30;68.60;;;;;;5031551;28;20474;-72
2021/03/04 04:52:17;;;;;;;13.87;7.17;;;8.20;68.60;;;;;;5031589;28;20205;-72
2021/03/04 04:54:43;;;;;;;15.17;8.43;;;8.20;69.40;;;;;;5048742;28;20191;-74
2021/03/04 04:57:08;;;;;;;15.43;7.40;;;8.30;69.50;;;;;;5048625;28;20713;-73
2021/03/04 04:59:34;;;;;;;14.60;7.60;;;8.20;69.70;;;;;;5049503;28;20558;-72
2021/03/04 05:02:01;;;;;;;18.27;7.80;;;8.20;69.70;;;;;;5050091;28;20674;-72
2021/03/04 05:04:27;;;;;;;14.63;7.40;;;8.30;69.50;;;;;;5050086;28;20596;-72
2021/03/04 05:06:53;;;;;;;11.30;6.90;;;8.30;68.90;;;;;;5037253;28;20944;-71
2021/03/04 05:09:18;;;;;;;15.23;7.90;;;8.30;68.60;;;;;;5030618;28;20185;-71
2021/03/04 05:11:44;;;;;;;14.37;7.40;;;8.30;68.50;;;;;;5044192;28;20204;-73
2021/03/04 05:14:10;;;;;;;13.70;6.80;;;8.20;68.20;;;;;;5050513;28;20184;-71
2021/03/04 05:16:35;;;;;;;16.60;8.10;;;8.20;67.50;;;;;;5051303;28;20206;-73
2021/03/04 05:19:01;;;;;;;13.70;6.73;;;8.20;68.00;;;;;;5038898;28;20209;-71
2021/03/04 05:21:27;;;;;;;16.50;7.30;;;8.10;67.90;;;;;;5039031;28;20258;-70
2021/03/04 05:23:52;;;;;;;13.33;6.37;;;8.10;67.60;;;;;;5039100;28;20191;-73
2021/03/04 05:26:18;;;;;;;13.60;7.40;;;8.10;67.90;;;;;;5035437;28;20192;-70
2021/03/04 05:28:44;;;;;;;15.00;7.50;;;8.10;68.00;;;;;;5036351;28;20220;-74
2021/03/04 05:31:09;;;;;;;13.57;7.07;;;8.00;67.90;;;;;;5038730;28;20193;-71
2021/03/04 05:33:35;;;;;;;11.60;6.20;;;8.00;67.70;;;;;;5045382;28;20331;-72
2021/03/04 05:36:01;;;;;;;19.03;7.40;;;8.00;68.00;;;;;;5043616;28;20196;-72
2021/03/04 05:38:26;;;;;;;16.10;6.73;;;8.00;67.90;;;;;;5031175;28;20223;-71
2021/03/04 05:40:52;;;;;;;15.30;7.30;;;8.00;68.00;;;;;;5036538;28;20267;-70
2021/03/04 05:43:19;;;;;;;18.43;7.33;;;8.00;68.20;;;;;;5031876;28;20247;-70
2021/03/04 05:45:49;;;;;;;19.03;7.77;;;8.00;68.30;;;;;;5031158;28;20420;-72
2021/03/04 05:48:19;;;;;;;17.30;8.20;;;8.00;68.30;;;;;;5016471;28;20420;-71
2021/03/04 05:50:57;;;;;;;18.20;8.47;;;7.90;68.60;;;;;;5043048;28;20439;-72
2021/03/04 05:53:23;;;;;;;13.77;7.63;;;7.90;69.20;;;;;;5039605;28;20521;-72
2021/03/04 05:55:49;;;;;;;17.03;8.63;;;7.90;68.80;;;;;;5036413;28;21041;-71
2021/03/04 05:58:15;;;;;;;15.97;7.30;;;7.80;67.60;;;;;;5039781;28;20494;-72
2021/03/04 06:00:42;;;;;;;18.77;8.07;;;7.80;68.20;;;;;;5042948;28;20424;-72
2021/03/04 06:03:08;;;;;;;22.53;7.97;;;7.80;68.30;;;;;;5039373;28;20435;-72
2021/03/04 06:05:34;;;;;;;16.20;8.63;;;7.80;69.10;;;;;;5035814;28;20423;-73
2021/03/04 06:08:05;;;;;;;14.10;7.77;;;7.90;69.50;;;;;;5038751;28;20427;-71
2021/03/04 06:10:31;;;;;;;20.37;9.07;;;7.90;69.50;;;;;;5045593;28;20927;-71
2021/03/04 06:12:58;;;;;;;19.97;8.30;;;7.90;69.90;;;;;;5042876;28;20501;-72
2021/03/04 06:15:25;;;;;;;17.20;8.43;;;7.90;69.80;;;;;;5037198;28;20566;-74
2021/03/04 06:17:58;;;;;;;18.33;8.60;;;7.80;68.60;;;;;;5038386;28;20473;-71
2021/03/04 06:20:35;;;;;;;17.00;8.77;;;7.80;68.30;;;;;;5018258;28;20427;-70
2021/03/04 06:23:00;;;;;;;14.00;7.80;;;7.80;68.00;;;;;;5041687;28;20456;-72
2021/03/04 06:25:26;;;;;;;17.50;8.33;;;7.80;68.30;;;;;;5025524;28;20438;-70
2021/03/04 06:27:52;;;;;;;23.90;9.37;;;7.90;68.30;;;;;;5043819;28;20192;-71
2021/03/04 06:30:18;;;;;;;17.40;8.50;;;7.90;68.30;;;;;;5041221;28;20189;-70
2021/03/04 06:32:58;;;;;;;16.80;8.50;;;7.90;68.60;;;;;;5028738;28;20585;-70
2021/03/04 06:35:33;;;;;;;19.23;8.70;;;8.00;68.30;;;;;;5041318;28;20554;-71
2021/03/04 06:37:59;;;;;;;19.60;8.53;;;8.00;68.60;;;;;;5044187;28;20454;-71
2021/03/04 06:40:27;;;;;;;22.53;8.63;;;8.00;68.00;;;;;;5040864;28;20435;-72
2021/03/04 06:42:53;;;;;;;18.30;8.83;;;8.00;67.30;;;;;;5026876;28;20447;-72
2021/03/04 06:45:30;;;;;;;16.00;9.27;;;8.10;66.70;;;;;;5031409;28;20431;-71
2021/03/04 06:48:12;;;;;;;22.50;8.10;;;8.10;66.90;;;;;;5032784;28;20448;-72
2021/03/04 06:50:40;;;;;;;23.10;8.23;;;8.10;67.60;;;;;;5034564;28;20427;-72
2021/03/04 06:53:22;;;;;;;19.77;7.80;;;8.20;67.90;;;;;;5034602;28;20487;-71
2021/03/04 06:55:50;;;;;;;15.30;8.30;;;8.30;67.70;;;;;;5028821;28;20415;-72
2021/03/04 06:58:32;;;;;;;18.87;9.13;;;8.30;67.50;;;;;;5028025;28;20495;-72
2021/03/04 07:01:02;;;;;;;15.47;8.00;;;8.30;67.20;;;;;;5029199;28;20436;-72
2021/03/04 07:03:54;;;;;;;14.67;7.90;;;8.30;67.00;;;;;;5029281;28;20428;-73
2021/03/04 07:06:22;;;;;;;16.23;8.80;;;8.40;66.60;;;;;;5026968;28;20436;-74
2021/03/04 07:08:49;;;;;;;16.00;7.80;;;8.40;66.30;;;;;;5030153;28;20420;-75
2021/03/04 07:11:20;;;;;;;14.70;8.10;;;8.50;66.00;;;;;;5030420;28;20415;-75
2021/03/04 07:13:47;;;;;;;19.03;8.73;;;8.60;65.30;;;;;;5031084;28;20434;-76
2021/03/04 07:16:18;;;;;;;22.23;9.23;;;8.70;65.30;;;;;;5029539;28;20452;-75
2021/03/04 07:18:54;;;;;;;18.80;9.80;;;8.80;64.40;;;;;;5026600;28;20466;-76
2021/03/04 07:21:21;;;;;;;13.50;7.80;;;8.90;63.80;;;;;;5033280;28;20456;-74
2021/03/04 07:23:47;;;;;;;23.10;8.53;;;9.00;63.10;;;;;;5036620;28;20445;-76
2021/03/04 07:26:15;;;;;;;21.87;9.90;;;9.00;62.90;;;;;;5037567;28;20439;-76
2021/03/04 07:28:43;;;;;;;17.83;9.90;;;9.10;63.10;;;;;;5044735;28;20494;-76
2021/03/04 07:31:10;;;;;;;20.37;9.90;;;9.10;62.60;;;;;;5045501;28;20502;-75
2021/03/04 07:33:55;;;;;;;21.07;9.80;;;9.10;62.80;;;;;;5034932;28;20481;-74
2021/03/04 07:36:24;;;;;;;18.17;10.13;;;9.20;62.90;;;;;;5018722;28;20419;-74
2021/03/04 07:38:57;;;;;;;20.03;8.90;;;9.30;62.20;;;;;;5040949;28;20501;-76
2021/03/04 07:41:34;;;;;;;21.17;10.40;;;9.30;62.20;;;;;;5037054;28;20451;-75
2021/03/04 07:44:00;;;;;;;19.30;8.73;;;9.40;62.20;;;;;;5039889;28;20411;-74
2021/03/04 07:46:30;;;;;;;19.67;8.80;;;9.50;61.60;;;;;;5035242;28;20769;-71
2021/03/04 07:48:57;;;;;;;21.40;9.80;;;9.60;61.50;;;;;;5041311;28;20455;-72
2021/03/04 07:51:23;;;;;;;25.53;10.20;;;9.80;60.00;;;;;;5046941;28;20450;-72
2021/03/04 07:53:49;;;;;;;18.47;9.50;;;10.00;58.80;;;;;;5033918;28;20419;-72
2021/03/04 07:56:41;;;;;;;19.40;10.13;;;10.30;58.50;;;;;;5053300;28;20453;-71
2021/03/04 07:59:15;;;;;;;19.10;9.23;;;10.40;57.70;;;;;;5050137;28;20463;-71
2021/03/04 08:01:57;;;;;;;17.63;9.03;;;10.50;57.60;;;;;;5045330;28;20471;-70
2021/03/04 08:04:25;;;;;;;24.27;10.27;;;10.60;57.30;;;;;;5055113;28;20415;-71
2021/03/04 08:06:51;;;;;;;20.43;9.43;;;10.70;56.80;;;;;;5042371;28;20474;-71
2021/03/04 08:09:29;;;;;;;17.97;8.77;;;10.70;56.00;;;;;;5042196;28;20419;-71
2021/03/04 08:12:26;;;;;;;19.97;8.67;;;10.70;54.20;;;;;;5054601;28;20484;-70
2021/03/04 08:14:57;;;;;;;24.17;9.70;;;10.70;54.10;;;;;;5018865;28;20429;-72
2021/03/04 08:17:34;;;;;;;19.70;9.80;;;10.80;53.40;;;;;;5005551;28;20422;-71
2021/03/04 08:20:05;;;;;;;19.27;8.53;;;10.90;52.80;;;;;;5010509;28;20518;-72
2021/03/04 08:22:31;;;;;;;18.83;8.37;;;11.00;52.20;;;;;;5004883;28;20459;-71
2021/03/04 08:25:01;;;;;;;19.90;9.90;;;11.00;52.50;;;;;;4996042;28;20458;-72
2021/03/04 08:27:27;;;;;;;19.47;8.70;;;11.10;52.60;;;;;;5024033;28;20421;-72
2021/03/04 08:29:53;;;;;;;20.97;7.93;;;11.20;51.70;;;;;;5009365;28;20420;-71
2021/03/04 08:32:20;;;;;;;16.50;7.20;;;11.30;50.50;;;;;;5013120;28;20452;-72
2021/03/04 08:34:45;;;;;;;22.83;8.47;;;11.30;49.90;;;;;;4996324;28;20823;-71
2021/03/04 08:37:23;;;;;;;18.03;7.80;;;11.40;50.10;;;;;;4996141;28;20487;-72
2021/03/04 08:39:58;;;;;;;21.03;8.50;;;11.50;49.50;;;;;;5011931;28;20216;-72
2021/03/04 08:42:24;;;;;;;12.87;8.00;;;11.60;49.30;;;;;;5011499;28;20495;-72
2021/03/04 08:44:50;;;;;;;17.57;8.27;;;11.70;49.00;;;;;;5011282;28;20425;-71
2021/03/04 08:47:17;;;;;;;25.67;9.57;;;11.80;48.70;;;;;;5011209;28;20429;-70
2021/03/04 08:49:52;;;;;;;15.73;8.60;;;11.90;48.10;;;;;;5034195;28;20443;-72
2021/03/04 08:52:22;;;;;;;21.50;8.80;;;11.90;48.20;;;;;;5040960;28;20479;-72
2021/03/04 08:54:50;;;;;;;21.30;7.57;;;12.00;48.20;;;;;;5046633;28;20447;-72
2021/03/04 08:57:24;;;;;;;22.37;8.73;;;12.20;47.70;;;;;;5033926;28;20548;-72
2021/03/04 09:00:03;;;;;;;12.60;7.97;;;12.20;47.10;;;;;;5032341;28;20450;-71
2021/03/04 09:02:29;;;;;;;13.87;8.20;;;12.30;47.10;;;;;;5035683;28;20451;-71
2021/03/04 09:04:54;;;;;;;21.13;8.53;;;12.40;47.00;;;;;;5052739;28;20415;-71
2021/03/04 09:07:31;;;;;;;20.40;8.63;;;12.40;46.70;;;;;;5053304;28;20192;-71
2021/03/04 09:10:04;;;;;;;17.70;7.70;;;12.50;46.60;;;;;;5040845;28;20191;-72
2021/03/04 09:12:30;;;;;;;16.67;8.10;;;12.70;46.20;;;;;;5033892;28;20547;-72
2021/03/04 09:14:57;;;;;;;20.43;8.13;;;12.80;46.20;;;;;;5033560;28;20456;-71
2021/03/04 09:17:24;;;;;;;23.00;9.40;;;12.80;46.30;;;;;;5047144;28;20545;-70
2021/03/04 09:19:55;;;;;;;17.03;8.37;;;12.80;46.30;;;;;;5045821;28;20458;-72
2021/03/04 09:22:21;;;;;;;18.60;8.57;;;12.80;46.30;;;;;;5053443;28;20534;-71
2021/03/04 09:24:48;;;;;;;16.30;8.77;;;12.90;46.10;;;;;;5040629;28;20424;-71
2021/03/04 09:27:17;;;;;;;18.20;8.10;;;12.80;46.30;;;;;;5046817;28;20420;-72
2021/03/04 09:29:43;;;;;;;15.43;8.10;;;12.80;46.30;;;;;;5046282;28;20423;-71
2021/03/04 09:32:10;;;;;;;21.37;8.40;;;12.90;46.10;;;;;;5040803;28;20442;-72
2021/03/04 09:34:38;;;;;;;14.63;7.87;;;12.90;46.10;;;;;;5053390;28;20446;-72
2021/03/04 09:37:11;;;;;;;22.93;8.90;;;13.00;46.30;;;;;;5045983;28;20531;-71
2021/03/04 09:39:46;;;;;;;17.37;8.30;;;12.90;46.50;;;;;;5032446;28;20926;-73
2021/03/04 09:42:15;;;;;;;21.83;8.33;;;12.80;47.30;;;;;;5033240;28;20427;-72
2021/03/04 09:44:56;;;;;;;18.80;8.77;;;12.80;47.40;;;;;;5044544;28;20435;-71
2021/03/04 09:47:28;;;;;;;16.53;7.90;;;12.90;47.40;;;;;;5032558;28;20995;-72
2021/03/04 09:49:55;;;;;;;21.63;7.90;;;12.90;47.40;;;;;;5052169;28;20426;-72
2021/03/04 09:52:32;;;;;;;16.30;7.77;;;12.90;47.40;;;;;;5038155;28;20462;-72
2021/03/04 09:55:08;;;;;;;15.17;8.00;;;13.10;47.70;;;;;;5030483;28;20571;-72
2021/03/04 09:57:40;;;;;;;22.63;7.60;;;13.10;47.80;;;;;;5032188;28;20419;-71
2021/03/04 10:00:17;;;;;;;23.30;8.63;;;13.10;48.10;;;;;;5034831;28;20459;-72
2021/03/04 10:02:45;;;;;;;15.13;8.43;;;13.10;47.80;;;;;;5052166;28;20449;-72
2021/03/04 10:05:14;;;;;;;22.07;9.40;;;13.10;47.80;;;;;;5052143;28;20410;-73
2021/03/04 10:07:40;;;;;;;17.27;8.43;;;13.20;47.90;;;;;;5044023;28;20416;-71
2021/03/04 10:10:20;;;;;;;16.23;8.03;;;13.40;47.40;;;;;;5044608;28;20914;-72
2021/03/04 10:12:57;;;;;;;16.37;8.40;;;13.50;47.50;;;;;;5039393;28;20443;-73
2021/03/04 10:15:37;;;;;;;15.03;7.93;;;13.50;47.50;;;;;;5046043;28;20423;-71
2021/03/04 10:18:08;;;;;;;20.47;8.20;;;13.60;47.40;;;;;;5044190;28;20933;-72
2021/03/04 10:20:35;;;;;;;17.00;8.30;;;13.80;46.90;;;;;;5023795;28;20429;-71
2021/03/04 10:23:01;;;;;;;18.97;8.10;;;13.90;46.50;;;;;;5052536;28;20439;-72
2021/03/04 10:25:27;;;;;;;22.70;8.53;;;14.10;46.30;;;;;;5047184;28;20411;-72
2021/03/04 10:27:55;;;;;;;16.60;8.37;;;14.20;46.10;;;;;;5031663;28;20455;-71
2021/03/04 10:30:21;;;;;;;24.03;9.17;;;14.20;46.10;;;;;;5023332;28;20212;-71
2021/03/04 10:32:47;;;;;;;20.87;8.80;;;14.40;46.20;;;;;;5051032;28;20446;-71
2021/03/04 10:35:15;;;;;;;26.00;9.20;;;14.50;46.20;;;;;;5050527;28;20423;-72
2021/03/04 10:37:42;;;;;;;24.53;10.60;;;14.40;47.00;;;;;;5038025;28;20218;-71
2021/03/04 10:40:09;;;;;;;29.00;11.37;;;14.30;47.50;;;;;;5037193;28;20469;-70
2021/03/04 10:42:35;;;;;;;23.87;11.67;;;14.40;48.30;;;;;;5035620;28;20454;-71
2021/03/04 10:45:01;;;;;;;27.23;10.90;;;14.50;48.30;;;;;;5031555;28;20429;-71
2021/03/04 10:47:27;;;;;;;19.53;10.17;;;14.70;47.80;;;;;;5031302;28;20424;-71
2021/03/04 10:49:53;;;;;;;30.03;11.60;;;15.00;47.50;;;;;;5031208;28;20213;-71
2021/03/04 10:52:20;;;;;;;26.60;12.20;;;15.10;47.40;;;;;;5048959;28;20464;-72
2021/03/04 10:54:46;;;;;;;27.37;12.17;;;15.30;47.40;;;;;;5039739;28;20524;-71
2021/03/04 10:57:12;;;;;;;26.30;11.93;;;15.70;46.50;;;;;;5037542;28;20423;-71
2021/03/04 10:59:37;;;;;;;31.63;12.47;;;16.00;45.40;;;;;;5037764;28;20817;-71
2021/03/04 11:02:03;;;;;;;24.80;11.70;;;16.10;44.90;;;;;;5037791;28;20224;-71
2021/03/04 11:04:29;;;;;;;24.50;12.50;;;16.30;44.70;;;;;;5050671;28;20635;-71
2021/03/04 11:06:55;;;;;;;22.53;10.57;;;16.50;44.90;;;;;;5036787;28;20433;-73
2021/03/04 11:09:20;;;;;;;25.60;12.27;;;17.00;42.40;;;;;;5031111;28;20203;-73
2021/03/04 11:11:46;;;;;;;22.37;10.50;;;17.00;41.90;;;;;;5029912;28;20253;-72
2021/03/04 11:14:12;;;;;;;22.30;9.93;;;16.70;42.70;;;;;;5037282;28;20185;-72
2021/03/04 11:16:41;;;;;;;22.77;10.03;;;16.70;42.80;;;;;;5036362;28;20189;-72
2021/03/04 11:19:08;;;;;;;21.03;9.90;;;16.80;42.00;;;;;;5024759;28;20210;-71
2021/03/04 11:21:34;;;;;;;22.47;11.47;;;16.90;41.80;;;;;;5038505;28;20450;-71
2021/03/04 11:24:00;;;;;;;25.27;11.63;;;17.00;42.00;;;;;;5034665;28;20427;-70
2021/03/04 11:26:26;;;;;;;28.33;11.13;;;16.80;41.90;;;;;;5021620;28;20734;-72
2021/03/04 11:28:52;;;;;;;33.50;12.13;;;16.60;42.60;;;;;;5014979;28;20235;-72
2021/03/04 11:31:18;;;;;;;30.50;12.00;;;16.60;43.20;;;;;;5028426;28;20480;-72
2021/03/04 11:33:44;;;;;;;25.70;11.40;;;16.30;44.30;;;;;;5042342;28;20183;-73
2021/03/04 11:36:09;;;;;;;22.90;12.47;;;16.30;44.60;;;;;;5054439;28;20453;-72
2021/03/04 11:38:35;;;;;;;23.90;10.50;;;16.40;44.70;;;;;;5047573;28;20557;-71
2021/03/04 11:41:01;;;;;;;24.90;11.27;;;16.30;44.30;;;;;;5047728;28;20574;-72
2021/03/04 11:43:27;;;;;;;20.70;10.07;;;16.10;45.00;;;;;;5039583;28;20198;-72
2021/03/04 11:45:53;;;;;;;22.53;11.23;;;15.90;44.90;;;;;;5051967;28;20195;-73
2021/03/04 11:48:19;;;;;;;23.40;11.60;;;15.90;44.60;;;;;;5035284;28;20432;-72
2021/03/04 11:50:44;;;;;;;35.60;11.63;;;16.10;44.70;;;;;;5045964;28;20188;-70
2021/03/04 11:53:10;;;;;;;29.70;11.27;;;16.00;44.30;;;;;;5033907;28;20262;-72
2021/03/04 11:55:36;;;;;;;24.47;10.13;;;15.90;44.90;;;;;;5033503;28;20263;-73
2021/03/04 11:58:02;;;;;;;24.63;11.40;;;16.00;45.30;;;;;;5034060;28;20234;-71
2021/03/04 12:00:28;;;;;;;24.67;11.50;;;16.30;44.30;;;;;;5032885;28;20613;-72
2021/03/04 12:02:54;;;;;;;27.43;10.83;;;16.20;43.80;;;;;;5045830;28;20526;-72
2021/03/04 12:05:20;;;;;;;28.33;11.50;;;16.10;44.30;;;;;;5033707;28;20907;-73
2021/03/04 12:07:46;;;;;;;23.27;11.07;;;16.00;44.90;;;;;;5033465;28;20432;-72
2021/03/04 12:10:12;;;;;;;32.23;11.00;;;16.00;45.40;;;;;;5033914;28;20420;-73
2021/03/04 12:12:38;;;;;;;32.43;12.17;;;16.10;45.40;;;;;;5046800;28;20627;-72
2021/03/04 12:15:05;;;;;;;29.33;11.07;;;16.30;45.10;;;;;;5032820;28;20446;-72
2021/03/04 12:17:31;;;;;;;26.20;11.03;;;16.30;45.10;;;;;;5041315;28;20427;-74
2021/03/04 12:19:57;;;;;;;31.90;11.87;;;16.50;44.90;;;;;;5038970;28;20465;-72
2021/03/04 12:22:22;;;;;;;19.90;10.07;;;16.60;43.80;;;;;;5026849;28;20721;-69
2021/03/04 12:24:48;;;;;;;16.80;8.80;;;16.40;41.80;;;;;;5029057;28;20286;-71
2021/03/04 12:27:14;;;;;;;26.43;9.80;;;16.40;42.20;;;;;;5043569;28;20201;-71
2021/03/04 12:29:40;;;;;;;23.07;9.03;;;16.40;41.90;;;;;;5040106;28;20461;-73
2021/03/04 12:32:06;;;;;;;20.13;7.90;;;16.50;41.10;;;;;;5032676;28;20265;-70
2021/03/04 12:34:32;;;;;;;20.57;7.37;;;16.40;40.20;;;;;;5030432;28;20188;-72
2021/03/04 12:36:58;;;;;;;18.47;6.67;;;16.50;39.80;;;;;;5037861;28;21064;-72
2021/03/04 12:39:23;;;;;;;20.50;8.00;;;16.60;39.80;;;;;;5036923;28;20453;-70
2021/03/04 12:41:49;;;;;;;19.73;6.20;;;16.70;39.00;;;;;;5046629;28;20196;-71
2021/03/04 12:44:15;;;;;;;17.07;6.80;;;16.40;38.00;;;;;;5030907;28;20268;-73
2021/03/04 12:46:42;;;;;;;22.40;7.30;;;16.30;39.20;;;;;;5042326;28;20437;-72